createdAt,value
2024-01-24T00:02:02.859Z,72.70
2024-01-24T00:04:29.896Z,72.88
2024-01-24T00:07:00.079Z,72.72
2024-01-24T00:09:27.107Z,73.31
2024-01-24T00:11:54.780Z,73.16
2024-01-24T00:14:21.544Z,73.78
2024-01-24T00:16:48.396Z,74.49
2024-01-24T00:19:15.414Z,75.39
2024-01-24T00:21:42.369Z,75.21
2024-01-24T00:24:10.154Z,75.48
2024-01-24T00:26:40.141Z,75.66
2024-01-24T00:29:08.879Z,76.64
2024-01-24T00:31:35.851Z,76.63
2024-01-24T00:34:03.510Z,77.44
2024-01-24T00:36:30.311Z,78.53
2024-01-24T00:38:57.047Z,80.03
2024-01-24T00:41:23.900Z,81.37
2024-01-24T00:43:50.654Z,82.71
2024-01-24T00:46:17.316Z,84.39
2024-01-24T00:48:44.257Z,85.41
2024-01-24T00:51:13.600Z,87.79
2024-01-24T00:53:42.064Z,86.85
2024-01-24T00:56:08.762Z,86.43
2024-01-24T00:58:35.639Z,86.60
2024-01-24T01:01:03.212Z,86.93
2024-01-24T01:03:33.318Z,87.41
2024-01-24T01:06:00.214Z,86.68
2024-01-24T01:08:27.797Z,87.31
2024-01-24T01:10:54.409Z,87.16
2024-01-24T01:13:23.929Z,87.01
2024-01-24T01:15:50.673Z,87.58
2024-01-24T01:18:18.688Z,87.83
2024-01-24T01:20:46.048Z,88.22
2024-01-24T01:23:12.769Z,88.97
2024-01-24T01:25:39.405Z,89.17
2024-01-24T01:28:06.365Z,89.08
2024-01-24T01:30:32.999Z,87.07
2024-01-24T01:32:59.871Z,88.09
2024-01-24T01:35:26.582Z,89.68
2024-01-24T01:37:53.179Z,89.57
2024-01-24T01:40:19.945Z,90.25
2024-01-24T01:42:47.068Z,91.25
2024-01-24T01:45:14.148Z,90.81
2024-01-24T01:47:41.235Z,89.93
2024-01-24T01:50:11.633Z,90.15
2024-01-24T01:52:39.944Z,90.45
2024-01-24T01:55:08.171Z,91.00
2024-01-24T01:57:35.565Z,90.71
2024-01-24T02:00:04.035Z,89.81
2024-01-24T02:02:31.132Z,90.07
2024-01-24T02:04:57.852Z,90.20
2024-01-24T02:07:24.833Z,89.61
2024-01-24T02:09:51.551Z,90.53
2024-01-24T02:12:18.166Z,91.01
2024-01-24T02:14:44.731Z,91.84
2024-01-24T02:17:11.325Z,92.51
2024-01-24T02:19:38.271Z,92.80
2024-01-24T02:22:04.900Z,92.17
2024-01-24T02:24:31.587Z,92.88
2024-01-24T02:26:58.278Z,93.31
2024-01-24T02:29:24.834Z,92.88
2024-01-24T02:31:51.572Z,92.31
2024-01-24T02:34:18.332Z,91.57
2024-01-24T02:36:44.997Z,90.63
2024-01-24T02:39:12.546Z,90.91
2024-01-24T02:41:41.348Z,90.94
2024-01-24T02:44:08.096Z,90.71
2024-01-24T02:46:35.486Z,90.38
2024-01-24T02:49:02.718Z,90.32
2024-01-24T02:51:29.601Z,90.24
2024-01-24T02:53:56.504Z,89.93
2024-01-24T02:56:23.202Z,89.76
2024-01-24T02:58:49.818Z,89.59
2024-01-24T03:01:17.322Z,89.34
2024-01-24T03:03:46.928Z,89.91
2024-01-24T03:06:13.781Z,89.24
2024-01-24T03:08:51.134Z,89.64
2024-01-24T03:11:17.861Z,88.77
2024-01-24T03:13:45.195Z,88.96
2024-01-24T03:16:12.047Z,89.43
2024-01-24T03:18:40.277Z,88.34
2024-01-24T03:21:10.124Z,88.17
2024-01-24T03:23:40.375Z,88.23
2024-01-24T03:26:07.819Z,88.53
2024-01-24T03:28:35.453Z,88.42
2024-01-24T03:31:03.246Z,87.87
2024-01-24T03:33:30.106Z,87.51
2024-01-24T03:35:56.792Z,87.33
2024-01-24T03:38:23.871Z,87.33
2024-01-24T03:40:50.569Z,87.12
2024-01-24T03:43:17.156Z,87.14
2024-01-24T03:45:43.833Z,87.48
2024-01-24T03:48:10.524Z,86.65
2024-01-24T03:50:37.152Z,86.73
2024-01-24T03:53:04.076Z,86.26
2024-01-24T03:55:33.031Z,86.33
2024-01-24T03:58:02.681Z,85.46
2024-01-24T04:00:29.368Z,85.44
2024-01-24T04:02:56.042Z,85.04
2024-01-24T04:05:22.731Z,84.77
2024-01-24T04:07:49.383Z,85.28
2024-01-24T04:10:17.194Z,85.25
2024-01-24T04:12:54.600Z,84.30
2024-01-24T04:15:23.787Z,83.47
2024-01-24T04:17:50.582Z,84.05
2024-01-24T04:20:17.489Z,83.32
2024-01-24T04:22:44.084Z,82.92
2024-01-24T04:25:10.701Z,82.66
2024-01-24T04:27:37.531Z,82.42
2024-01-24T04:30:05.768Z,82.57
2024-01-24T04:32:33.254Z,82.12
2024-01-24T04:35:00.170Z,82.77
2024-01-24T04:37:26.954Z,82.20
2024-01-24T04:39:53.785Z,81.89
2024-01-24T04:42:20.641Z,81.26
2024-01-24T04:44:47.462Z,81.03
2024-01-24T04:47:17.065Z,81.43
2024-01-24T04:49:45.680Z,81.39
2024-01-24T04:52:15.428Z,80.90
2024-01-24T04:54:45.331Z,81.24
2024-01-24T04:57:12.056Z,80.63
2024-01-24T04:59:46.599Z,81.21
2024-01-24T05:02:20.922Z,80.65
2024-01-24T05:04:48.922Z,80.40
2024-01-24T05:07:16.053Z,80.78
2024-01-24T05:09:42.827Z,80.66
2024-01-24T05:12:09.452Z,80.34
2024-01-24T05:14:36.178Z,80.35
2024-01-24T05:17:02.876Z,81.14
2024-01-24T05:19:29.871Z,79.97
2024-01-24T05:21:57.671Z,80.03
2024-01-24T05:24:24.491Z,79.92
2024-01-24T05:26:51.089Z,80.09
2024-01-24T05:29:18.016Z,80.33
2024-01-24T05:31:44.747Z,80.53
2024-01-24T05:34:11.547Z,80.52
2024-01-24T05:36:38.560Z,79.78
2024-01-24T05:39:08.704Z,78.74
2024-01-24T05:41:36.782Z,79.09
2024-01-24T05:44:04.586Z,79.25
2024-01-24T05:46:31.523Z,78.66
2024-01-24T05:49:01.922Z,78.55
2024-01-24T05:51:32.717Z,78.06
2024-01-24T05:54:02.118Z,78.86
2024-01-24T05:56:39.323Z,78.98
2024-01-24T05:59:06.608Z,79.19
2024-01-24T06:01:55.070Z,78.97
2024-01-24T06:08:38.235Z,77.96
2024-01-24T06:17:52.558Z,78.80
2024-01-24T06:24:46.190Z,77.42
2024-01-24T06:27:36.606Z,78.30
2024-01-24T06:30:29.800Z,77.59
2024-01-24T06:33:20.391Z,77.77
2024-01-24T06:39:46.321Z,76.81
2024-01-24T06:42:35.099Z,77.50
2024-01-24T06:46:54.939Z,77.90
2024-01-24T06:48:53.912Z,78.14
2024-01-24T06:51:53.011Z,78.02
2024-01-24T06:55:09.665Z,77.59
2024-01-24T06:57:49.188Z,77.23
2024-01-24T07:04:20.534Z,77.78
2024-01-24T07:07:10.889Z,77.72
2024-01-24T07:09:38.728Z,77.69
2024-01-24T07:13:03.584Z,78.33
2024-01-24T07:15:46.616Z,77.76
2024-01-24T07:18:40.025Z,77.45
2024-01-24T07:24:28.064Z,77.15
2024-01-24T07:27:05.424Z,76.48
2024-01-24T07:30:05.863Z,76.70
2024-01-24T07:36:10.187Z,76.29
2024-01-24T07:39:12.522Z,76.73
2024-01-24T07:42:16.847Z,76.58
2024-01-24T07:48:04.937Z,77.56
2024-01-24T07:51:05.435Z,75.27
2024-01-24T07:53:35.851Z,66.99
2024-01-24T07:56:20.840Z,70.17
2024-01-24T08:01:45.193Z,71.50
2024-01-24T08:04:34.483Z,73.31
2024-01-24T08:09:57.892Z,73.60
2024-01-24T08:12:31.790Z,74.14
2024-01-24T08:15:14.195Z,75.38
2024-01-24T08:17:48.098Z,74.28
2024-01-24T08:20:26.196Z,75.64
2024-01-24T08:23:03.232Z,75.16
2024-01-24T08:25:33.786Z,74.70
2024-01-24T08:28:14.021Z,74.78
2024-01-24T08:30:46.494Z,71.09
2024-01-24T08:33:17.390Z,70.15
2024-01-24T08:35:47.136Z,72.89
2024-01-24T08:38:19.452Z,69.61
2024-01-24T08:40:52.767Z,66.38
2024-01-24T08:43:20.395Z,63.51
2024-01-24T08:45:49.560Z,60.65
2024-01-24T08:48:44.483Z,60.43
2024-01-24T08:51:18.481Z,64.84
2024-01-24T08:53:48.831Z,64.42
2024-01-24T08:56:20.406Z,56.10
2024-01-24T08:58:47.920Z,54.08
2024-01-24T09:01:15.920Z,52.41
2024-01-24T09:03:45.028Z,50.42
2024-01-24T09:06:21.357Z,47.58
2024-01-24T09:08:54.999Z,43.07
2024-01-24T09:11:27.264Z,41.33
2024-01-24T09:13:56.689Z,42.95
2024-01-24T09:16:24.460Z,43.03
2024-01-24T09:18:54.940Z,41.60
2024-01-24T09:21:27.987Z,44.16
2024-01-24T09:24:00.938Z,42.55
2024-01-24T09:26:33.353Z,39.43
2024-01-24T09:29:24.533Z,39.09
2024-01-24T09:31:53.529Z,39.76
2024-01-24T09:34:32.352Z,40.35
2024-01-24T09:37:02.580Z,46.85
2024-01-24T09:39:30.545Z,51.05
2024-01-24T09:41:58.835Z,55.72
2024-01-24T09:44:28.654Z,57.98
2024-01-24T09:46:57.139Z,60.20
2024-01-24T09:49:25.286Z,59.31
2024-01-24T09:52:02.789Z,58.98
2024-01-24T09:54:37.663Z,56.34
2024-01-24T09:57:13.402Z,55.46
2024-01-24T09:59:41.349Z,56.72
2024-01-24T10:02:09.966Z,57.61
2024-01-24T10:04:39.346Z,60.19
2024-01-24T10:07:10.761Z,62.35
2024-01-24T10:12:33.265Z,63.68
2024-01-24T10:15:02.488Z,63.30
2024-01-24T10:17:30.685Z,62.93
2024-01-24T10:20:00.925Z,64.04
2024-01-24T10:22:29.790Z,63.41
2024-01-24T10:25:03.078Z,63.79
2024-01-24T10:27:34.964Z,64.26
2024-01-24T10:30:14.695Z,63.59
2024-01-24T10:32:50.314Z,64.73
2024-01-24T10:35:22.002Z,64.98
2024-01-24T10:37:56.632Z,64.47
2024-01-24T10:40:30.337Z,64.79
2024-01-24T10:43:09.047Z,66.43
2024-01-24T10:45:38.782Z,65.80
2024-01-24T10:48:09.815Z,69.05
2024-01-24T10:50:42.018Z,73.41
2024-01-24T10:53:16.488Z,75.83
2024-01-24T10:55:43.409Z,74.96
2024-01-24T10:58:17.669Z,74.30
2024-01-24T11:00:44.801Z,72.86
2024-01-24T11:03:12.255Z,73.26
2024-01-24T11:05:51.799Z,72.79
2024-01-24T11:08:36.283Z,74.41
2024-01-24T11:11:14.457Z,75.50
2024-01-24T11:13:44.185Z,75.58
2024-01-24T11:16:26.783Z,75.81
2024-01-24T11:19:00.089Z,74.66
2024-01-24T11:21:33.455Z,74.39
2024-01-24T11:24:00.744Z,73.65
2024-01-24T11:26:27.915Z,72.93
2024-01-24T11:29:14.701Z,73.85
2024-01-24T11:31:46.972Z,76.18
2024-01-24T11:34:15.754Z,78.32
2024-01-24T11:36:50.209Z,77.73
2024-01-24T11:39:32.064Z,78.08
2024-01-24T11:42:45.765Z,77.53
2024-01-24T11:45:28.962Z,76.58
2024-01-24T11:47:57.970Z,76.67
2024-01-24T11:50:25.232Z,76.24
2024-01-24T11:53:14.568Z,76.08
2024-01-24T11:55:58.442Z,73.98
2024-01-24T11:58:30.435Z,72.69
2024-01-24T12:01:04.674Z,72.44
2024-01-24T12:03:32.819Z,72.13
2024-01-24T12:06:01.101Z,71.42
2024-01-24T12:08:30.717Z,71.47
2024-01-24T12:11:00.692Z,71.90
2024-01-24T12:13:29.060Z,72.65
2024-01-24T12:15:57.001Z,71.53
2024-01-24T12:18:24.590Z,71.42
2024-01-24T12:20:56.856Z,71.41
2024-01-24T12:23:26.265Z,70.89
2024-01-24T12:25:55.134Z,71.05
2024-01-24T12:28:29.016Z,70.13
2024-01-24T12:30:59.051Z,70.04
2024-01-24T12:33:26.876Z,69.61
2024-01-24T12:35:57.280Z,69.95
2024-01-24T12:38:47.226Z,70.59
2024-01-24T12:41:23.733Z,72.38
2024-01-24T12:43:53.982Z,71.55
2024-01-24T12:46:24.396Z,71.58
2024-01-24T12:48:51.285Z,72.27
2024-01-24T12:51:18.452Z,72.28
2024-01-24T12:53:45.936Z,71.05
2024-01-24T12:56:16.955Z,70.38
2024-01-24T12:58:43.821Z,69.48
2024-01-24T13:01:10.527Z,68.71
2024-01-24T13:03:38.297Z,68.69
2024-01-24T13:06:05.594Z,69.02
2024-01-24T13:08:41.941Z,69.45
2024-01-24T13:11:09.273Z,69.31
2024-01-24T13:13:36.333Z,69.76
2024-01-24T13:16:04.289Z,69.29
2024-01-24T13:18:31.170Z,69.01
2024-01-24T13:20:58.306Z,67.76
2024-01-24T13:23:25.809Z,68.02
2024-01-24T13:25:52.496Z,67.27
2024-01-24T13:28:19.501Z,66.21
2024-01-24T13:30:50.520Z,65.68
2024-01-24T13:33:18.211Z,65.44
2024-01-24T13:35:47.344Z,64.18
2024-01-24T13:38:14.818Z,63.24
2024-01-24T13:40:41.804Z,63.48
2024-01-24T13:43:08.730Z,63.48
2024-01-24T13:45:38.549Z,62.94
2024-01-24T13:48:08.484Z,63.19
2024-01-24T13:50:38.842Z,62.31
2024-01-24T13:53:05.799Z,63.30
2024-01-24T13:55:32.869Z,63.61
2024-01-24T13:58:01.805Z,63.52
2024-01-24T14:00:28.848Z,63.42
2024-01-24T14:02:55.779Z,63.54
2024-01-24T14:05:22.693Z,63.33
2024-01-24T14:07:49.535Z,65.07
2024-01-24T14:10:16.311Z,68.20
2024-01-24T14:12:43.642Z,69.44
2024-01-24T14:15:19.869Z,70.26
2024-01-24T14:17:55.030Z,73.54
2024-01-24T14:20:22.114Z,74.93
2024-01-24T14:22:49.184Z,76.14
2024-01-24T14:25:15.890Z,77.16
2024-01-24T14:27:44.209Z,75.86
2024-01-24T14:30:11.713Z,75.04
2024-01-24T14:32:41.627Z,74.67
2024-01-24T14:35:09.209Z,74.11
2024-01-24T14:37:36.439Z,72.45
2024-01-24T14:40:03.698Z,69.64
2024-01-24T14:42:30.839Z,69.18
2024-01-24T14:44:57.610Z,68.57
2024-01-24T14:47:24.224Z,67.85
2024-01-24T14:49:51.170Z,66.70
2024-01-24T14:52:18.197Z,67.19
2024-01-24T14:54:45.833Z,67.30
2024-01-24T14:57:12.598Z,66.87
2024-01-24T14:59:39.259Z,65.99
2024-01-24T15:02:06.512Z,65.55
2024-01-24T15:04:33.384Z,65.38
2024-01-24T15:07:00.517Z,65.92
2024-01-24T15:09:27.354Z,66.66
2024-01-24T15:12:03.483Z,66.39
2024-01-24T15:14:30.817Z,66.66
2024-01-24T15:16:58.725Z,67.01
2024-01-24T15:19:30.033Z,66.87
2024-01-24T15:21:57.745Z,66.18
2024-01-24T15:24:38.638Z,66.66
2024-01-24T15:27:12.236Z,67.57
2024-01-24T15:29:40.295Z,66.55
2024-01-24T15:32:17.197Z,67.06
2024-01-24T15:34:44.522Z,67.70
2024-01-24T15:37:11.484Z,66.50
2024-01-24T15:39:43.957Z,67.09
2024-01-24T15:42:13.643Z,67.06
2024-01-24T15:44:43.934Z,67.32
2024-01-24T15:47:10.902Z,67.29
2024-01-24T15:49:39.077Z,67.45
2024-01-24T15:52:06.311Z,67.17
2024-01-24T15:54:37.476Z,68.01
2024-01-24T15:57:09.064Z,68.11
2024-01-24T15:59:38.847Z,67.95
2024-01-24T16:02:05.858Z,67.95
2024-01-24T16:04:34.788Z,67.62
2024-01-24T16:07:02.154Z,66.59
2024-01-24T16:09:29.498Z,66.30
2024-01-24T16:11:56.377Z,65.79
2024-01-24T16:14:28.185Z,65.52
2024-01-24T16:16:56.196Z,64.44
2024-01-24T16:19:23.759Z,64.80
2024-01-24T16:21:54.606Z,63.79
2024-01-24T16:24:21.488Z,64.07
2024-01-24T16:26:48.308Z,64.11
2024-01-24T16:29:15.470Z,62.86
2024-01-24T16:31:45.826Z,63.19
2024-01-24T16:34:12.802Z,63.85
2024-01-24T16:36:39.757Z,63.71
2024-01-24T16:39:06.734Z,62.97
2024-01-24T16:41:33.609Z,62.13
2024-01-24T16:44:00.580Z,62.05
2024-01-24T16:46:27.451Z,61.79
2024-01-24T16:48:56.493Z,61.89
2024-01-24T16:51:24.129Z,62.14
2024-01-24T16:53:51.062Z,61.75
2024-01-24T16:56:17.991Z,62.25
2024-01-24T16:58:44.902Z,62.36
2024-01-24T17:01:15.351Z,62.33
2024-01-24T17:03:48.792Z,62.58
2024-01-24T17:06:19.874Z,62.50
2024-01-24T17:08:50.106Z,62.04
2024-01-24T17:11:20.115Z,62.31
2024-01-24T17:13:59.692Z,62.28
2024-01-24T17:16:27.949Z,62.54
2024-01-24T17:18:54.755Z,62.18
2024-01-24T17:21:21.914Z,62.13
2024-01-24T17:23:49.215Z,61.75
2024-01-24T17:26:20.524Z,62.00
2024-01-24T17:28:47.468Z,62.53
2024-01-24T17:31:14.620Z,62.03
2024-01-24T17:33:41.325Z,62.53
2024-01-24T17:36:08.546Z,61.84
2024-01-24T17:38:35.656Z,62.10
2024-01-24T17:41:02.864Z,62.24
2024-01-24T17:43:31.017Z,62.41
2024-01-24T17:45:58.335Z,62.42
2024-01-24T17:48:25.310Z,62.51
2024-01-24T17:50:52.615Z,62.19
2024-01-24T17:53:19.654Z,62.14
2024-01-24T17:55:47.274Z,61.73
2024-01-24T17:58:14.334Z,62.60
2024-01-24T18:00:41.146Z,62.22
2024-01-24T18:03:08.570Z,62.49
2024-01-24T18:05:36.307Z,62.37
2024-01-24T18:08:08.046Z,62.46
2024-01-24T18:10:36.107Z,63.03
2024-01-24T18:13:28.928Z,63.94
2024-01-24T18:15:56.666Z,63.99
2024-01-24T18:18:26.295Z,63.78
2024-01-24T18:20:54.760Z,64.98
2024-01-24T18:23:22.481Z,64.31
2024-01-24T18:25:49.738Z,65.75
2024-01-24T18:28:17.618Z,64.94
2024-01-24T18:30:44.788Z,64.95
2024-01-24T18:33:14.756Z,64.84
2024-01-24T18:35:44.374Z,66.10
2024-01-24T18:38:11.135Z,65.87
2024-01-24T18:40:37.979Z,65.85
2024-01-24T18:43:05.097Z,64.55
2024-01-24T18:45:32.109Z,66.17
2024-01-24T18:47:59.516Z,65.25
2024-01-24T18:50:30.290Z,65.57
2024-01-24T18:52:57.059Z,64.73
2024-01-24T18:55:23.934Z,65.42
2024-01-24T18:57:51.157Z,65.25
2024-01-24T19:00:18.981Z,67.82
2024-01-24T19:02:49.063Z,68.06
2024-01-24T19:05:19.873Z,68.12
2024-01-24T19:07:52.490Z,68.07
2024-01-24T19:10:19.365Z,67.09
2024-01-24T19:12:46.581Z,67.32
2024-01-24T19:15:13.447Z,67.02
2024-01-24T19:17:40.907Z,66.38
2024-01-24T19:20:08.344Z,66.65
2024-01-24T19:22:35.207Z,66.03
2024-01-24T19:25:05.937Z,65.15
2024-01-24T19:27:33.111Z,65.64
2024-01-24T19:29:59.843Z,65.51
2024-01-24T19:32:26.668Z,65.77
2024-01-24T19:34:55.879Z,66.01
2024-01-24T19:37:23.637Z,66.75
2024-01-24T19:39:50.500Z,66.77
2024-01-24T19:42:17.928Z,66.76
2024-01-24T19:44:44.740Z,66.50
2024-01-24T19:47:54.031Z,66.70
2024-01-24T19:50:46.708Z,66.00
2024-01-24T19:53:57.394Z,66.97
2024-01-24T19:59:47.923Z,67.23
2024-01-24T20:02:14.957Z,66.72
2024-01-24T20:04:49.386Z,66.68
2024-01-24T20:07:19.568Z,66.69
2024-01-24T20:09:46.625Z,66.67
2024-01-24T20:12:13.604Z,66.29
2024-01-24T20:14:40.501Z,66.05
2024-01-24T20:17:07.442Z,66.82
2024-01-24T20:19:34.485Z,70.86
2024-01-24T20:22:01.261Z,72.50
2024-01-24T20:24:28.313Z,72.46
2024-01-24T20:26:55.063Z,71.81
2024-01-24T20:29:26.527Z,71.79
2024-01-24T20:31:56.586Z,71.26
2024-01-24T20:34:23.484Z,70.67
2024-01-24T20:36:50.384Z,70.50
2024-01-24T20:39:19.568Z,70.28
2024-01-24T20:41:47.884Z,70.41
2024-01-24T20:44:20.492Z,71.10
2024-01-24T20:46:47.226Z,71.92
2024-01-24T20:49:17.385Z,71.83
2024-01-24T20:51:47.952Z,71.50
2024-01-24T20:54:18.674Z,71.15
2024-01-24T20:56:45.558Z,70.09
2024-01-24T20:59:12.497Z,71.05
2024-01-24T21:01:39.443Z,73.74
2024-01-24T21:04:06.551Z,77.57
2024-01-24T21:06:47.711Z,79.80
2024-01-24T21:09:18.779Z,80.84
2024-01-24T21:11:48.821Z,81.38
2024-01-24T21:14:15.618Z,82.87
2024-01-24T21:16:44.200Z,83.78
2024-01-24T21:19:17.506Z,84.35
2024-01-24T21:21:44.952Z,83.41
2024-01-24T21:24:13.895Z,82.40
2024-01-24T21:26:41.157Z,82.19
2024-01-24T21:29:07.954Z,81.45
2024-01-24T21:31:34.752Z,80.93
2024-01-24T21:34:02.340Z,80.55
2024-01-24T21:36:29.129Z,80.17
2024-01-24T21:38:55.873Z,78.57
2024-01-24T21:41:22.532Z,78.54
2024-01-24T21:43:49.377Z,77.62
2024-01-24T21:46:16.570Z,77.67
2024-01-24T21:48:43.290Z,77.40
2024-01-24T21:51:09.972Z,77.27
2024-01-24T21:53:36.701Z,77.05
2024-01-24T21:56:03.502Z,76.49
2024-01-24T21:58:30.236Z,76.08
2024-01-24T22:00:57.104Z,76.21
2024-01-24T22:03:23.893Z,75.17
2024-01-24T22:05:50.562Z,75.08
2024-01-24T22:08:19.483Z,74.06
2024-01-24T22:10:46.497Z,73.41
2024-01-24T22:13:13.429Z,72.93
2024-01-24T22:15:40.490Z,72.28
2024-01-24T22:18:08.287Z,72.54
2024-01-24T22:20:35.460Z,72.39
2024-01-24T22:23:02.181Z,72.19
2024-01-24T22:25:29.463Z,71.60
2024-01-24T22:27:56.921Z,71.10
2024-01-24T22:30:23.884Z,71.46
2024-01-24T22:32:50.692Z,70.94
2024-01-24T22:35:18.708Z,69.48
2024-01-24T22:37:45.585Z,69.84
2024-01-24T22:40:12.421Z,69.51
2024-01-24T22:42:43.000Z,69.49
2024-01-24T22:45:39.309Z,69.08
2024-01-24T22:48:07.177Z,69.34
2024-01-24T22:50:34.244Z,68.89
2024-01-24T22:53:01.182Z,69.29
2024-01-24T22:55:28.078Z,68.62
2024-01-24T22:57:55.048Z,68.65
2024-01-24T23:00:23.090Z,68.66
2024-01-24T23:02:50.103Z,69.59
2024-01-24T23:05:17.642Z,69.14
2024-01-24T23:07:45.291Z,69.39
2024-01-24T23:10:12.232Z,69.49
2024-01-24T23:12:53.136Z,69.39
2024-01-24T23:15:24.198Z,69.67
2024-01-24T23:17:53.598Z,69.98
2024-01-24T23:20:22.355Z,70.24
2024-01-24T23:22:51.390Z,69.70
2024-01-24T23:25:19.080Z,69.90
2024-01-24T23:27:46.570Z,69.90
2024-01-24T23:30:17.324Z,70.09
2024-01-24T23:32:48.674Z,70.64
2024-01-24T23:35:16.581Z,70.48
2024-01-24T23:37:44.345Z,70.17
2024-01-24T23:40:12.479Z,69.62
2024-01-24T23:42:39.950Z,70.16
2024-01-24T23:45:07.040Z,70.46
2024-01-24T23:47:33.831Z,70.71
2024-01-24T23:50:02.653Z,70.57
2024-01-24T23:52:29.809Z,70.17
2024-01-24T23:54:56.567Z,70.52
2024-01-24T23:57:23.332Z,70.30
2024-01-24T23:59:50.136Z,70.74
